createdAt,value
2022-09-01T00:00:29.980Z,44.56
2022-09-01T00:02:58.093Z,44.57
2022-09-01T00:05:26.106Z,44.62
2022-09-01T00:07:53.924Z,44.83
2022-09-01T00:10:21.871Z,44.93
2022-09-01T00:12:49.663Z,45.06
2022-09-01T00:15:17.654Z,45.10
2022-09-01T00:17:46.987Z,44.80
2022-09-01T00:20:20.062Z,45.19
2022-09-01T00:22:48.630Z,45.31
2022-09-01T00:25:18.850Z,45.38
2022-09-01T00:27:47.787Z,45.51
2022-09-01T00:30:15.941Z,45.44
2022-09-01T00:32:46.755Z,45.66
2022-09-01T00:35:17.353Z,45.60
2022-09-01T00:37:45.546Z,45.76
2022-09-01T00:40:16.426Z,45.91
2022-09-01T00:42:45.330Z,45.96
2022-09-01T00:45:13.390Z,46.00
2022-09-01T00:47:41.393Z,46.07
2022-09-01T00:50:12.851Z,46.17
2022-09-01T00:52:46.387Z,46.26
2022-09-01T00:55:18.770Z,46.27
2022-09-01T00:57:47.601Z,46.46
2022-09-01T01:00:19.020Z,46.57
2022-09-01T01:02:48.473Z,46.41
2022-09-01T01:05:17.282Z,46.51
2022-09-01T01:07:48.013Z,46.61
2022-09-01T01:10:17.726Z,46.69
2022-09-01T01:12:47.403Z,46.98
2022-09-01T01:15:17.200Z,46.76
2022-09-01T01:17:45.346Z,46.96
2022-09-01T01:20:35.571Z,47.24
2022-09-01T01:23:11.229Z,46.97
2022-09-01T01:25:43.315Z,46.98
2022-09-01T01:28:15.758Z,46.86
2022-09-01T01:30:52.711Z,46.95
2022-09-01T01:33:23.425Z,47.21
2022-09-01T01:35:53.823Z,46.80
2022-09-01T01:38:22.925Z,47.19
2022-09-01T01:40:54.080Z,46.91
2022-09-01T01:43:23.066Z,47.21
2022-09-01T01:45:52.306Z,46.87
2022-09-01T01:48:23.125Z,47.44
2022-09-01T01:50:52.386Z,47.51
2022-09-01T01:53:21.014Z,47.24
2022-09-01T01:55:50.423Z,47.39
2022-09-01T01:58:20.509Z,47.50
2022-09-01T02:00:51.366Z,47.60
2022-09-01T02:03:22.050Z,47.50
2022-09-01T02:05:53.572Z,47.98
2022-09-01T02:08:26.078Z,48.06
2022-09-01T02:10:58.077Z,47.99
2022-09-01T02:13:30.354Z,48.08
2022-09-01T02:16:02.098Z,47.94
2022-09-01T02:18:34.300Z,48.10
2022-09-01T02:21:03.274Z,47.67
2022-09-01T02:23:32.924Z,48.24
2022-09-01T02:26:16.182Z,47.93
2022-09-01T02:28:54.759Z,47.56
2022-09-01T02:31:25.241Z,47.55
2022-09-01T02:33:54.441Z,47.76
2022-09-01T02:36:25.445Z,47.52
2022-09-01T02:38:56.463Z,46.39
2022-09-01T02:41:29.509Z,46.56
2022-09-01T02:44:02.290Z,46.98
2022-09-01T02:46:31.211Z,47.09
2022-09-01T02:49:00.657Z,46.98
2022-09-01T02:51:28.823Z,46.79
2022-09-01T02:53:56.930Z,46.81
2022-09-01T02:56:27.409Z,46.95
2022-09-01T02:58:56.718Z,47.05
2022-09-01T03:01:29.591Z,46.88
2022-09-01T03:04:01.272Z,47.11
2022-09-01T03:06:34.193Z,47.10
2022-09-01T03:09:03.942Z,47.10
2022-09-01T03:11:37.141Z,46.99
2022-09-01T03:14:05.499Z,46.88
2022-09-01T03:16:35.562Z,46.71
2022-09-01T03:19:04.286Z,46.72
2022-09-01T03:21:32.876Z,46.93
2022-09-01T03:24:02.140Z,46.64
2022-09-01T03:26:30.648Z,47.11
2022-09-01T03:28:59.439Z,46.88
2022-09-01T03:31:31.163Z,47.00
2022-09-01T03:34:03.519Z,46.73
2022-09-01T03:36:33.325Z,46.95
2022-09-01T03:39:01.983Z,47.44
2022-09-01T03:41:32.153Z,47.04
2022-09-01T03:44:00.673Z,47.63
2022-09-01T03:46:36.279Z,47.37
2022-09-01T03:49:07.319Z,47.22
2022-09-01T03:51:39.454Z,47.55
2022-09-01T03:54:07.622Z,47.63
2022-09-01T03:56:35.670Z,47.66
2022-09-01T03:59:03.774Z,47.54
2022-09-01T04:01:33.695Z,47.81
2022-09-01T04:04:01.848Z,47.74
2022-09-01T04:06:31.045Z,47.91
2022-09-01T04:09:03.289Z,48.13
2022-09-01T04:11:32.413Z,48.07
2022-09-01T04:14:03.023Z,48.51
2022-09-01T04:16:51.947Z,48.54
2022-09-01T04:19:26.504Z,48.62
2022-09-01T04:21:59.723Z,48.48
2022-09-01T04:24:29.588Z,48.54
2022-09-01T04:27:00.288Z,48.38
2022-09-01T04:29:28.292Z,48.37
2022-09-01T04:31:56.999Z,48.77
2022-09-01T04:34:26.291Z,48.71
2022-09-01T04:36:57.014Z,48.88
2022-09-01T04:39:25.279Z,48.79
2022-09-01T04:41:53.369Z,49.07
2022-09-01T04:44:22.221Z,48.85
2022-09-01T04:46:51.019Z,48.96
2022-09-01T04:49:22.454Z,48.94
2022-09-01T04:51:54.012Z,48.94
2022-09-01T04:54:23.982Z,49.33
2022-09-01T04:56:54.141Z,49.47
2022-09-01T04:59:24.220Z,49.26
2022-09-01T05:01:54.976Z,49.22
2022-09-01T05:04:27.348Z,49.26
2022-09-01T05:07:00.781Z,49.55
2022-09-01T05:09:31.442Z,49.54
2022-09-01T05:12:12.857Z,49.29
2022-09-01T05:14:45.250Z,49.60
2022-09-01T05:17:14.777Z,50.03
2022-09-01T05:19:47.691Z,49.72
2022-09-01T05:22:16.603Z,49.87
2022-09-01T05:24:45.790Z,50.01
2022-09-01T05:27:14.540Z,50.40
2022-09-01T05:29:42.655Z,50.10
2022-09-01T05:32:10.860Z,50.70
2022-09-01T05:34:39.796Z,50.78
2022-09-01T05:37:12.227Z,50.72
2022-09-01T05:39:40.296Z,50.60
2022-09-01T05:42:09.587Z,50.86
2022-09-01T05:44:39.438Z,50.88
2022-09-01T05:47:10.142Z,50.79
2022-09-01T05:49:48.090Z,51.18
2022-09-01T05:52:16.290Z,51.17
2022-09-01T05:54:44.141Z,51.33
2022-09-01T05:57:33.431Z,51.50
2022-09-01T06:00:02.309Z,51.34
2022-09-01T06:02:31.000Z,51.59
2022-09-01T06:05:00.322Z,51.38
2022-09-01T06:07:28.834Z,51.57
2022-09-01T06:09:57.045Z,51.64
2022-09-01T06:12:28.336Z,51.00
2022-09-01T06:14:57.135Z,51.20
2022-09-01T06:17:28.516Z,50.82
2022-09-01T06:19:57.767Z,50.41
2022-09-01T06:22:27.947Z,50.86
2022-09-01T06:25:01.797Z,50.61
2022-09-01T06:27:31.727Z,50.27
2022-09-01T06:29:59.748Z,49.97
2022-09-01T06:32:27.961Z,50.52
2022-09-01T06:34:58.133Z,50.04
2022-09-01T06:37:27.127Z,49.86
2022-09-01T06:39:55.389Z,49.92
2022-09-01T06:42:23.578Z,49.61
2022-09-01T06:44:53.143Z,49.59
2022-09-01T06:47:21.207Z,49.64
2022-09-01T06:49:53.557Z,49.81
2022-09-01T06:52:23.797Z,49.63
2022-09-01T06:54:54.979Z,49.85
2022-09-01T07:03:08.523Z,50.09
2022-09-01T07:08:25.436Z,49.68
2022-09-01T07:16:51.754Z,49.15
2022-09-01T07:19:21.202Z,48.92
2022-09-01T07:24:37.415Z,48.60
2022-09-01T07:27:09.341Z,48.31
2022-09-01T07:29:37.380Z,48.41
2022-09-01T07:34:56.174Z,47.84
2022-09-01T07:43:09.650Z,47.55
2022-09-01T07:45:47.283Z,47.74
2022-09-01T07:53:57.406Z,46.72
2022-09-01T07:56:26.272Z,46.61
2022-09-01T07:58:54.360Z,46.33
2022-09-01T08:01:25.038Z,46.12
2022-09-01T08:03:56.077Z,45.79
2022-09-01T08:06:27.292Z,45.79
2022-09-01T08:08:58.531Z,45.87
2022-09-01T08:14:18.161Z,45.69
2022-09-01T08:16:54.103Z,45.58
2022-09-01T08:19:24.859Z,45.07
2022-09-01T08:21:52.846Z,45.33
2022-09-01T08:24:21.986Z,44.63
2022-09-01T08:26:49.769Z,44.49
2022-09-01T08:29:17.895Z,44.39
2022-09-01T08:31:47.776Z,43.82
2022-09-01T08:34:17.018Z,44.10
2022-09-01T08:36:46.261Z,43.66
2022-09-01T08:39:14.080Z,43.48
2022-09-01T08:41:46.830Z,44.03
2022-09-01T08:44:28.533Z,43.57
2022-09-01T08:47:03.170Z,44.01
2022-09-01T08:49:42.492Z,43.20
2022-09-01T08:52:24.150Z,43.34
2022-09-01T08:54:57.573Z,42.67
2022-09-01T08:57:32.200Z,42.42
2022-09-01T09:00:00.261Z,42.61
2022-09-01T09:02:47.884Z,42.99
2022-09-01T09:05:29.237Z,42.09
2022-09-01T09:08:14.398Z,42.17
2022-09-01T09:10:52.230Z,41.98
2022-09-01T09:13:25.682Z,42.07
2022-09-01T09:16:13.694Z,42.21
2022-09-01T09:19:00.624Z,41.90
2022-09-01T09:21:33.692Z,41.67
2022-09-01T09:24:11.157Z,41.64
2022-09-01T09:26:42.528Z,41.30
2022-09-01T09:29:10.706Z,41.27
2022-09-01T09:31:45.951Z,41.07
2022-09-01T09:34:29.720Z,40.87
2022-09-01T09:36:57.546Z,40.68
2022-09-01T09:39:30.464Z,39.77
2022-09-01T09:42:11.952Z,40.64
2022-09-01T09:44:45.312Z,40.17
2022-09-01T09:47:43.727Z,40.55
2022-09-01T09:50:20.847Z,39.76
2022-09-01T09:52:49.613Z,40.23
2022-09-01T09:55:26.564Z,38.89
2022-09-01T09:57:57.509Z,38.72
2022-09-01T10:00:28.425Z,38.21
2022-09-01T10:03:01.549Z,37.90
2022-09-01T10:05:39.754Z,38.51
2022-09-01T10:08:10.365Z,38.24
2022-09-01T10:10:43.102Z,36.87
2022-09-01T10:13:15.671Z,36.21
2022-09-01T10:15:51.237Z,36.24
2022-09-01T10:18:22.248Z,35.61
2022-09-01T10:21:01.765Z,35.37
2022-09-01T10:23:31.686Z,35.20
2022-09-01T10:26:06.505Z,35.38
2022-09-01T10:28:49.937Z,34.75
2022-09-01T10:31:20.145Z,34.78
2022-09-01T10:33:48.547Z,34.44
2022-09-01T10:36:18.254Z,34.89
2022-09-01T10:38:53.530Z,34.69
2022-09-01T10:41:48.267Z,35.82
2022-09-01T10:44:21.303Z,34.50
2022-09-01T10:46:50.834Z,35.04
2022-09-01T10:50:07.626Z,34.55
2022-09-01T10:52:57.774Z,35.11
2022-09-01T10:55:33.713Z,34.76
2022-09-01T11:01:11.696Z,34.48
2022-09-01T11:03:56.552Z,34.46
2022-09-01T11:07:17.234Z,33.93
2022-09-01T11:10:31.969Z,34.13
2022-09-01T11:13:23.176Z,33.41
2022-09-01T11:15:52.906Z,33.01
2022-09-01T11:18:27.592Z,32.97
2022-09-01T11:20:57.960Z,32.62
2022-09-01T11:23:30.508Z,32.09
2022-09-01T11:28:48.457Z,32.21
2022-09-01T11:31:23.465Z,33.12
2022-09-01T11:34:24.672Z,33.48
2022-09-01T11:37:00.319Z,32.40
2022-09-01T11:39:40.706Z,32.87
2022-09-01T11:42:14.544Z,32.08
2022-09-01T11:44:49.520Z,31.79
2022-09-01T11:47:22.967Z,31.47
2022-09-01T11:49:55.098Z,30.02
2022-09-01T11:52:26.181Z,30.62
2022-09-01T11:54:55.555Z,30.82
2022-09-01T11:57:27.635Z,30.76
2022-09-01T11:59:56.386Z,31.04
2022-09-01T12:02:27.902Z,30.96
2022-09-01T12:04:57.528Z,31.53
2022-09-01T12:07:31.355Z,30.48
2022-09-01T12:09:59.609Z,30.61
2022-09-01T12:12:32.996Z,31.36
2022-09-01T12:15:06.112Z,30.49
2022-09-01T12:17:37.117Z,31.43
2022-09-01T12:20:28.129Z,31.42
2022-09-01T12:22:58.153Z,30.65
2022-09-01T12:25:28.547Z,30.54
2022-09-01T12:27:56.920Z,31.16
2022-09-01T12:30:25.926Z,30.51
2022-09-01T12:33:22.782Z,30.09
2022-09-01T12:35:44.053Z,30.61
2022-09-01T12:38:23.864Z,30.65
2022-09-01T12:40:54.323Z,31.17
2022-09-01T12:43:35.481Z,31.31
2022-09-01T12:46:04.690Z,31.16
2022-09-01T12:48:35.889Z,31.37
2022-09-01T12:51:09.535Z,30.92
2022-09-01T12:53:37.951Z,31.17
2022-09-01T12:56:22.825Z,31.64
2022-09-01T12:58:54.951Z,31.89
2022-09-01T13:01:29.870Z,31.44
2022-09-01T13:04:28.442Z,31.45
2022-09-01T13:07:01.615Z,31.49
2022-09-01T13:09:30.070Z,31.09
2022-09-01T13:12:12.199Z,31.09
2022-09-01T13:14:40.365Z,30.73
2022-09-01T13:17:14.083Z,30.74
2022-09-01T13:19:57.981Z,30.16
2022-09-01T13:22:26.021Z,30.36
2022-09-01T13:24:54.072Z,30.18
2022-09-01T13:27:23.507Z,30.65
2022-09-01T13:29:52.537Z,31.18
2022-09-01T13:32:22.538Z,31.36
2022-09-01T13:34:52.496Z,31.25
2022-09-01T13:37:23.229Z,30.53
2022-09-01T13:39:51.619Z,31.00
2022-09-01T13:42:20.042Z,31.09
2022-09-01T13:44:52.501Z,30.90
2022-09-01T13:47:31.804Z,30.80
2022-09-01T13:50:09.746Z,31.35
2022-09-01T13:52:41.060Z,30.97
2022-09-01T13:55:12.205Z,30.54
2022-09-01T13:57:40.311Z,30.61
2022-09-01T14:00:11.891Z,30.75
2022-09-01T14:02:40.546Z,30.14
2022-09-01T14:05:09.511Z,30.51
2022-09-01T14:07:37.685Z,30.82
2022-09-01T14:10:08.992Z,31.17
2022-09-01T14:12:37.568Z,30.59
2022-09-01T14:15:12.320Z,30.52
2022-09-01T14:17:44.014Z,30.01
2022-09-01T14:20:15.347Z,29.51
2022-09-01T14:22:43.407Z,29.89
2022-09-01T14:25:12.913Z,29.43
2022-09-01T14:27:42.455Z,30.01
2022-09-01T14:30:19.847Z,29.74
2022-09-01T14:32:47.688Z,30.15
2022-09-01T14:35:17.714Z,30.18
2022-09-01T14:37:45.724Z,30.16
2022-09-01T14:40:17.285Z,29.65
2022-09-01T14:42:47.667Z,29.36
2022-09-01T14:45:16.673Z,28.99
2022-09-01T14:47:45.028Z,29.17
2022-09-01T14:50:15.953Z,29.45
2022-09-01T14:52:47.203Z,29.72
2022-09-01T14:55:17.084Z,29.52
2022-09-01T14:57:45.088Z,30.01
2022-09-01T15:00:14.257Z,29.68
2022-09-01T15:02:44.224Z,29.48
2022-09-01T15:05:14.324Z,29.79
2022-09-01T15:07:43.076Z,28.80
2022-09-01T15:10:16.029Z,29.10
2022-09-01T15:12:55.197Z,28.52
2022-09-01T15:15:23.715Z,29.04
2022-09-01T15:17:51.572Z,27.92
2022-09-01T15:20:36.788Z,28.55
2022-09-01T15:23:05.438Z,28.69
2022-09-01T15:25:33.292Z,28.67
2022-09-01T15:28:02.802Z,29.03
2022-09-01T15:30:31.133Z,29.17
2022-09-01T15:32:58.980Z,29.03
2022-09-01T15:35:30.982Z,28.91
2022-09-01T15:37:59.365Z,28.83
2022-09-01T15:40:28.256Z,28.77
2022-09-01T15:42:57.583Z,29.08
2022-09-01T15:45:28.793Z,28.90
2022-09-01T15:47:56.912Z,28.29
2022-09-01T15:50:27.903Z,28.86
2022-09-01T15:52:58.626Z,27.85
2022-09-01T15:55:29.109Z,27.89
2022-09-01T15:57:56.965Z,28.17
2022-09-01T16:00:27.709Z,28.22
2022-09-01T16:02:56.593Z,28.03
2022-09-01T16:05:25.090Z,28.24
2022-09-01T16:07:53.633Z,28.64
2022-09-01T16:10:21.784Z,28.34
2022-09-01T16:12:51.801Z,28.95
2022-09-01T16:15:22.206Z,28.51
2022-09-01T16:18:13.530Z,28.28
2022-09-01T16:20:55.509Z,27.80
2022-09-01T16:23:25.611Z,28.48
2022-09-01T16:25:54.764Z,28.64
2022-09-01T16:28:27.731Z,28.01
2022-09-01T16:31:02.280Z,28.54
2022-09-01T16:33:33.938Z,28.48
2022-09-01T16:36:17.173Z,28.58
2022-09-01T16:38:50.393Z,28.64
2022-09-01T16:41:29.796Z,28.54
2022-09-01T16:44:07.513Z,28.77
2022-09-01T16:46:45.594Z,28.57
2022-09-01T16:49:21.684Z,28.15
2022-09-01T16:51:58.503Z,28.40
2022-09-01T16:54:37.034Z,28.56
2022-09-01T16:57:12.089Z,28.47
2022-09-01T16:59:53.280Z,28.56
2022-09-01T17:02:41.988Z,29.01
2022-09-01T17:05:22.067Z,29.01
2022-09-01T17:07:53.627Z,29.36
2022-09-01T17:10:32.829Z,29.53
2022-09-01T17:13:16.574Z,29.90
2022-09-01T17:15:48.302Z,30.11
2022-09-01T17:18:21.952Z,30.78
2022-09-01T17:20:57.984Z,31.30
2022-09-01T17:23:29.227Z,31.16
2022-09-01T17:26:01.808Z,31.81
2022-09-01T17:28:35.670Z,32.03
2022-09-01T17:31:14.449Z,32.30
2022-09-01T17:33:56.330Z,32.76
2022-09-01T17:36:36.047Z,33.69
2022-09-01T17:39:14.164Z,34.36
2022-09-01T17:41:48.696Z,35.13
2022-09-01T17:44:24.264Z,34.94
2022-09-01T17:47:00.640Z,35.53
2022-09-01T17:49:37.555Z,35.63
2022-09-01T17:52:15.134Z,35.88
2022-09-01T17:54:52.316Z,36.14
2022-09-01T17:57:27.248Z,36.37
2022-09-01T18:00:02.927Z,36.52
2022-09-01T18:03:07.355Z,35.97
2022-09-01T18:05:41.282Z,36.69
2022-09-01T18:08:28.018Z,36.43
2022-09-01T18:10:59.943Z,37.42
2022-09-01T18:13:51.907Z,37.61
2022-09-01T18:16:21.622Z,37.69
2022-09-01T18:18:51.278Z,37.94
2022-09-01T18:21:21.294Z,37.59
2022-09-01T18:23:55.626Z,37.52
2022-09-01T18:26:29.697Z,38.23
2022-09-01T18:28:58.042Z,38.07
2022-09-01T18:31:56.871Z,37.49
2022-09-01T18:34:37.258Z,38.11
2022-09-01T18:37:16.347Z,38.53
2022-09-01T18:39:58.310Z,38.63
2022-09-01T18:42:32.925Z,39.20
2022-09-01T18:45:06.592Z,39.51
2022-09-01T18:47:36.910Z,39.82
2022-09-01T18:50:15.281Z,39.93
2022-09-01T18:52:58.514Z,39.05
2022-09-01T18:55:37.298Z,39.62
2022-09-01T18:58:09.923Z,39.94
2022-09-01T19:00:45.280Z,40.12
2022-09-01T19:03:23.993Z,39.82
2022-09-01T19:06:09.626Z,39.73
2022-09-01T19:08:47.718Z,38.79
2022-09-01T19:11:26.505Z,39.62
2022-09-01T19:14:05.717Z,39.76
2022-09-01T19:16:46.847Z,39.97
2022-09-01T19:19:28.955Z,39.99
2022-09-01T19:21:57.260Z,40.71
2022-09-01T19:24:30.348Z,40.71
2022-09-01T19:27:04.466Z,40.95
2022-09-01T19:29:37.289Z,41.24
2022-09-01T19:32:08.735Z,40.77
2022-09-01T19:34:40.577Z,40.72
2022-09-01T19:37:08.847Z,40.57
2022-09-01T19:39:39.923Z,40.72
2022-09-01T19:42:14.820Z,40.71
2022-09-01T19:44:55.028Z,40.69
2022-09-01T19:47:30.046Z,40.94
2022-09-01T19:50:05.391Z,41.23
2022-09-01T19:52:39.541Z,41.24
2022-09-01T19:55:13.712Z,41.01
2022-09-01T19:57:50.669Z,40.98
2022-09-01T20:00:25.418Z,41.35
2022-09-01T20:03:01.072Z,41.54
2022-09-01T20:05:32.769Z,41.71
2022-09-01T20:08:04.182Z,41.74
2022-09-01T20:10:56.591Z,41.10
2022-09-01T20:14:03.036Z,41.54
2022-09-01T20:16:35.322Z,42.07
2022-09-01T20:19:09.031Z,41.85
2022-09-01T20:21:40.199Z,41.86
2022-09-01T20:24:15.297Z,41.74
2022-09-01T20:26:50.066Z,41.75
2022-09-01T20:29:26.049Z,41.88
2022-09-01T20:31:58.233Z,41.98
2022-09-01T20:34:32.873Z,42.23
2022-09-01T20:37:05.492Z,42.11
2022-09-01T20:39:58.199Z,41.83
2022-09-01T20:42:37.167Z,41.64
2022-09-01T20:45:13.509Z,41.92
2022-09-01T20:47:42.973Z,42.09
2022-09-01T20:50:13.278Z,42.16
2022-09-01T20:52:51.497Z,41.96
2022-09-01T20:55:26.358Z,42.13
2022-09-01T20:58:01.883Z,42.08
2022-09-01T21:00:34.397Z,42.28
2022-09-01T21:03:15.445Z,42.13
2022-09-01T21:05:50.998Z,42.21
2022-09-01T21:08:34.637Z,42.43
2022-09-01T21:11:25.883Z,42.32
2022-09-01T21:14:06.806Z,42.50
2022-09-01T21:16:45.966Z,42.55
2022-09-01T21:19:23.066Z,42.72
2022-09-01T21:22:00.992Z,42.67
2022-09-01T21:24:28.783Z,42.95
2022-09-01T21:26:57.555Z,43.03
2022-09-01T21:29:34.052Z,43.02
2022-09-01T21:32:03.848Z,43.14
2022-09-01T21:34:31.794Z,43.38
2022-09-01T21:37:01.004Z,43.37
2022-09-01T21:39:28.882Z,43.37
2022-09-01T21:41:57.777Z,43.51
2022-09-01T21:44:26.284Z,43.41
2022-09-01T21:46:54.225Z,43.30
2022-09-01T21:49:24.112Z,43.39
2022-09-01T21:51:52.019Z,43.32
2022-09-01T21:54:20.035Z,43.41
2022-09-01T21:56:48.709Z,43.40
2022-09-01T21:59:17.150Z,43.32
2022-09-01T22:01:45.167Z,43.58
2022-09-01T22:04:13.695Z,43.48
2022-09-01T22:06:42.862Z,43.70
2022-09-01T22:09:20.827Z,43.89
2022-09-01T22:11:51.109Z,43.83
2022-09-01T22:14:19.880Z,43.72
2022-09-01T22:16:48.274Z,44.05
2022-09-01T22:19:17.139Z,44.10
2022-09-01T22:21:46.771Z,44.32
2022-09-01T22:24:14.612Z,44.40
2022-09-01T22:26:48.281Z,44.35
2022-09-01T22:29:17.425Z,44.58
2022-09-01T22:31:45.875Z,44.43
2022-09-01T22:34:14.106Z,44.43
2022-09-01T22:36:47.549Z,44.93
2022-09-01T22:39:16.806Z,45.41
2022-09-01T22:41:44.618Z,45.28
2022-09-01T22:44:12.919Z,45.20
2022-09-01T22:46:41.909Z,45.30
2022-09-01T22:49:10.324Z,45.27
2022-09-01T22:51:39.716Z,45.39
2022-09-01T22:54:09.988Z,45.61
2022-09-01T22:56:40.120Z,45.50
2022-09-01T22:59:11.038Z,45.42
2022-09-01T23:01:43.060Z,45.18
2022-09-01T23:04:13.004Z,45.37
2022-09-01T23:06:43.749Z,45.60
2022-09-01T23:09:14.021Z,46.06
2022-09-01T23:11:42.499Z,45.84
2022-09-01T23:14:10.542Z,46.01
2022-09-01T23:16:38.715Z,46.10
2022-09-01T23:19:07.519Z,45.69
2022-09-01T23:21:37.773Z,46.16
2022-09-01T23:24:06.587Z,46.25
2022-09-01T23:26:36.193Z,46.71
2022-09-01T23:29:05.220Z,46.26
2022-09-01T23:31:35.889Z,46.55
2022-09-01T23:34:04.820Z,46.59
2022-09-01T23:36:33.118Z,46.66
2022-09-01T23:39:01.425Z,46.45
2022-09-01T23:41:32.151Z,46.91
2022-09-01T23:44:03.384Z,47.04
2022-09-01T23:46:34.588Z,47.13
2022-09-01T23:49:03.150Z,47.09
2022-09-01T23:51:31.246Z,47.16
2022-09-01T23:53:59.889Z,47.19
2022-09-01T23:56:29.660Z,47.19
2022-09-01T23:58:58.348Z,47.05
